Latest Weather Observations for Darwin Airport

IDD60801

Issued at 9:21 pm CST Monday 6 February 2023 (issued every 10 minutes, with the page automatically refreshed every 10 minutes)

About weather observations | Map of weather stations | Latest weather observations for NT | Other Formats
Station Details ID: 014015 Name: DARWIN AIRPORT Lat: -12.42 Lon: 130.89 Height: 30.4 m
Data from the previous 72 hours. | See also: Recent months at Darwin Airport
Date/Time
CST
Temp
°C
App
Temp
°C
Dew
Point
°C
Rel
Hum
%
Delta-T
°C
Wind Press
QNH
hPa
Press
MSL
hPa
Rain since
9am
mm
Dir  Spd
km/h
Gust
km/h
Spd
kts
Gust
kts
06/09:00pm 27.6 31.4 24.0 81 2.5 WNW 11 13 6 7 1007.3 1007.1 0.0
06/08:30pm 27.4 31.7 24.3 83 2.2 NNW 9 11 5 6 1007.2 1007.0 0.0
06/08:00pm 27.7 30.8 23.5 78 2.9 NW 13 17 7 9 1006.9 1006.7 0.0
06/07:30pm 27.4 31.4 23.8 81 2.5 NNW 9 13 5 7 1006.8 1006.6 0.0
06/07:00pm 27.1 31.6 24.0 83 2.1 NNW 7 9 4 5 1006.5 1006.3 0.0
06/06:30pm 26.4 30.0 23.7 85 1.9 NNW 11 15 6 8 1006.2 1006.0 0.0
06/06:00pm 26.5 30.4 23.0 81 2.4 ENE 7 13 4 7 1006.1 1005.9 0.0
06/05:48pm 26.9 30.8 22.9 79 2.7 N 7 17 4 9 1006.0 1005.8 0.0
06/05:30pm 27.4 31.5 23.0 77 3.0 SSW 6 15 3 8 1005.5 1005.3 0.0
06/05:21pm 28.8 31.5 22.1 67 4.5 WSW 11 17 6 9 1005.6 1005.4 0.0
06/05:00pm 30.7 32.0 24.1 68 4.6 WNW 24 32 13 17 1004.8 1004.6 0.0
06/04:30pm 31.7 33.8 25.3 69 4.5 WNW 24 30 13 16 1004.7 1004.5 0.0
06/04:00pm 32.1 33.6 23.1 59 6.2 WNW 20 26 11 14 1004.7 1004.5 0.0
06/03:30pm 31.9 33.5 23.2 60 6.0 WNW 20 26 11 14 1005.0 1004.8 0.0
06/03:00pm 31.8 33.6 23.3 60 5.9 NW 19 26 10 14 1005.4 1005.2 0.0
06/02:30pm 31.7 34.6 25.1 68 4.7 WNW 19 24 10 13 1005.5 1005.3 0.0
06/02:00pm 31.6 34.6 25.2 69 4.5 WNW 19 26 10 14 1005.9 1005.7 0.0
06/01:30pm 31.6 35.0 24.7 67 4.9 WNW 15 22 8 12 1006.4 1006.2 0.0
06/01:00pm 31.0 34.2 24.4 68 4.6 WNW 15 22 8 12 1006.9 1006.7 0.0
06/12:30pm 31.1 35.1 25.0 70 4.3 WNW 13 17 7 9 1007.4 1007.2 0.0
06/12:00pm 30.7 35.1 25.1 72 4.0 WNW 11 17 6 9 1007.8 1007.6 0.0
06/11:30am 30.5 34.9 24.4 70 4.3 WNW 9 13 5 7 1008.2 1008.0 0.0
06/11:00am 29.3 34.8 24.6 76 3.3 WNW 4 7 2 4 1008.4 1008.2 0.0
06/10:30am 29.0 34.5 24.6 77 3.1 N 4 7 2 4 1008.5 1008.3 0.0
06/10:00am 28.7 33.0 24.3 77 3.1 N 9 11 5 6 1008.6 1008.4 0.0
06/09:30am 28.4 32.4 23.8 76 3.2 N 9 11 5 6 1008.5 1008.3 0.0
06/09:00am 28.0 32.0 23.8 78 2.9 N 9 13 5 7 1008.4 1008.2 0.0
06/08:30am 27.5 32.3 24.1 82 2.4 N 6 7 3 4 1008.3 1008.1 0.0
06/08:00am 26.7 31.2 23.6 83 2.1 N 6 7 3 4 1008.0 1007.8 0.0
06/07:30am 26.1 31.2 24.0 88 1.4 NNE 4 4 2 2 1007.7 1007.5 0.0
06/07:00am 25.4 29.8 23.5 89 1.3 ENE 6 7 3 4 1007.3 1007.1 0.0
06/06:30am 25.4 29.8 23.5 89 1.3 NNE 6 7 3 4 1006.9 1006.7 0.0
06/06:00am 25.7 30.0 23.6 88 1.4 NNE 7 11 4 6 1006.5 1006.3 0.0
06/05:30am 25.8 30.6 24.4 92 1.0 N 7 13 4 7 1006.3 1006.1 0.0
06/05:00am 26.0 31.6 24.8 93 0.8 SSW 4 4 2 2 1006.0 1005.8 0.0
06/04:30am 26.0 32.2 24.6 92 1.0 CALM 0 0 0 0 1006.1 1005.9 0.0
06/04:00am 26.1 32.2 24.5 91 1.1 CALM 0 0 0 0 1006.1 1005.9 0.0
06/03:30am 26.2 31.5 24.4 90 1.2 SSE 4 6 2 3 1006.0 1005.8 0.0
06/03:00am 26.3 31.3 24.5 90 1.2 S 6 7 3 4 1006.3 1006.1 0.0
06/02:30am 26.8 32.0 24.8 89 1.4 SSE 6 7 3 4 1006.4 1006.2 0.0
06/02:00am 27.6 32.1 24.0 81 2.5 SSW 7 9 4 5 1006.6 1006.4 0.0
06/01:30am 27.6 32.2 23.8 80 2.6 WNW 6 6 3 3 1006.7 1006.5 0.0
06/01:00am 27.7 32.6 24.3 82 2.4 WNW 6 9 3 5 1006.8 1006.6 0.0
06/12:30am 27.7 31.6 24.3 82 2.4 WNW 11 13 6 7 1006.8 1006.6 0.0
06/12:00am 27.1 33.0 24.7 87 1.7 W 2 4 1 2 1007.3 1007.1 0.0
 
Date/Time
CST
Temp
°C
App
Temp
°C
Dew
Point
°C
Rel
Hum
%
Delta-T
°C
Wind Press
QNH
hPa
Press
MSL
hPa
Rain since
9am
mm
Dir  Spd
km/h
Gust
km/h
Spd
kts
Gust
kts
05/11:30pm 27.0 31.8 24.1 84 2.0 W 6 7 3 4 1007.3 1007.1 0.0
05/11:00pm 27.2 31.6 23.4 80 2.6 W 6 6 3 3 1007.2 1007.0 0.0
05/10:30pm 26.5 31.1 23.8 85 1.9 W 6 7 3 4 1006.8 1006.6 0.0
05/10:00pm 26.9 30.6 22.5 77 3.0 S 7 11 4 6 1006.8 1006.6 0.0
05/09:30pm 27.4 31.2 22.8 76 3.1 S 7 11 4 6 1007.2 1007.0 0.0
05/09:00pm 28.5 33.0 23.9 76 3.2 SSW 7 9 4 5 1007.2 1007.0 0.0
05/08:30pm 28.4 32.2 23.5 75 3.4 W 9 13 5 7 1006.5 1006.3 0.0
05/08:00pm 28.5 32.0 23.6 75 3.4 W 11 15 6 8 1006.3 1006.1 0.0
05/07:30pm 27.3 30.9 22.0 73 3.6 NW 6 11 3 6 1005.7 1005.5 0.0
05/07:00pm 28.4 31.4 20.9 64 5.0 NE 6 13 3 7 1005.6 1005.4 0.0
05/06:30pm 29.2 32.3 23.6 72 3.9 NW 13 17 7 9 1005.1 1004.9 0.0
05/06:00pm 29.4 32.1 23.4 70 4.1 NW 15 19 8 10 1004.6 1004.4 0.0
05/05:30pm 29.5 32.1 23.9 72 3.9 NW 17 20 9 11 1004.4 1004.2 0.0
05/05:00pm 30.0 32.6 23.9 70 4.2 NW 17 22 9 12 1004.3 1004.1 0.0
05/04:30pm 30.4 34.0 24.3 70 4.3 NNW 13 17 7 9 1004.3 1004.1 0.0
05/04:00pm 30.4 34.1 25.2 74 3.7 NNW 15 20 8 11 1004.4 1004.2 0.0
05/03:30pm 30.7 33.9 24.4 69 4.4 NNW 15 19 8 10 1004.6 1004.4 0.0
05/03:00pm 30.3 32.9 24.0 69 4.4 NNW 17 22 9 12 1004.6 1004.4 0.0
05/02:30pm 31.2 34.7 23.6 64 5.3 WNW 11 15 6 8 1004.6 1004.4 0.0
05/02:00pm 31.8 35.2 24.7 66 5.0 NNW 15 20 8 11 1004.9 1004.7 0.0
05/01:30pm 31.3 35.7 24.4 66 4.8 W 9 13 5 7 1005.1 1004.9 0.0
05/01:00pm 30.5 34.0 24.9 72 3.9 W 15 19 8 10 1005.4 1005.2 0.0
05/12:30pm 31.8 34.7 22.5 58 6.4 NW 11 20 6 11 1005.8 1005.6 0.0
05/12:00pm 31.5 35.0 23.6 63 5.5 S 11 15 6 8 1006.0 1005.8 0.0
05/11:30am 30.2 33.3 22.9 65 5.0 SE 11 17 6 9 1006.2 1006.0 0.0
05/11:00am 29.7 34.2 23.6 69 4.2 S 6 11 3 6 1006.8 1006.6 0.0
05/10:30am 29.6 34.0 23.5 69 4.2 S 6 11 3 6 1007.0 1006.8 0.0
05/10:00am 28.8 33.4 24.1 76 3.3 SSE 7 13 4 7 1007.1 1006.9 0.0
05/09:30am 28.0 32.1 24.0 79 2.8 SSE 9 13 5 7 1007.0 1006.8 0.0
05/09:00am 27.0 30.2 23.7 82 2.3 SE 13 15 7 8 1007.2 1007.0 5.0
05/08:30am 26.5 29.2 23.4 83 2.1 SE 15 19 8 10 1007.1 1006.9 5.0
05/08:00am 26.6 29.2 23.3 82 2.3 ESE 15 20 8 11 1006.8 1006.6 5.0
05/07:30am 25.0 28.5 22.9 88 1.4 SE 9 13 5 7 1006.6 1006.4 5.0
05/07:00am 24.6 28.4 22.8 90 1.2 SSE 7 11 4 6 1006.4 1006.2 5.0
05/06:30am 24.6 28.6 22.8 90 1.2 ESE 6 9 3 5 1006.0 1005.8 5.0
05/06:00am 24.7 28.7 23.1 91 1.1 ESE 7 9 4 5 1005.7 1005.5 5.0
05/05:30am 24.6 28.7 23.0 91 1.1 SE 6 9 3 5 1005.3 1005.1 5.0
05/05:00am 24.5 28.6 22.9 91 1.1 SSE 6 6 3 3 1005.1 1004.9 5.0
05/04:30am 24.4 29.3 23.0 92 0.9 SSE 2 4 1 2 1005.1 1004.9 5.0
05/04:00am 24.3 28.3 22.7 91 1.1 S 6 7 3 4 1004.8 1004.6 5.0
05/03:30am 24.5 29.7 22.9 91 1.1 CALM 0 2 0 1 1004.9 1004.7 5.0
05/03:00am 24.5 29.8 23.1 92 1.0 CALM 0 0 0 0 1005.0 1004.8 5.0
05/02:30am 24.6 28.6 22.8 90 1.2 ENE 6 9 3 5 1004.9 1004.7 5.0
05/02:00am 24.7 28.8 22.9 90 1.2 ENE 6 9 3 5 1005.2 1005.0 5.0
05/01:30am 24.6 28.1 22.8 90 1.2 E 9 11 5 6 1005.5 1005.3 5.0
05/01:00am 24.7 27.0 22.8 89 1.3 E 15 20 8 11 1005.8 1005.6 5.0
05/12:30am 24.7 26.6 22.8 89 1.3 E 17 22 9 12 1006.0 1005.8 5.0
05/12:00am 24.7 27.2 22.4 87 1.5 E 13 19 7 10 1006.5 1006.3 5.0
 
Date/Time
CST
Temp
°C
App
Temp
°C
Dew
Point
°C
Rel
Hum
%
Delta-T
°C
Wind Press
QNH
hPa
Press
MSL
hPa
Rain since
9am
mm
Dir  Spd
km/h
Gust
km/h
Spd
kts
Gust
kts
04/11:30pm 24.6 26.4 22.5 88 1.4 E 17 24 9 13 1006.8 1006.6 5.0
04/11:00pm 24.3 27.2 23.1 93 0.8 ESE 13 15 7 8 1007.0 1006.8 5.0
04/10:30pm 24.2 27.0 23.0 93 0.8 SE 13 19 7 10 1007.4 1007.2 5.0
04/10:00pm 24.3 26.3 22.9 92 0.9 ESE 17 22 9 12 1007.3 1007.1 5.0
04/09:30pm 24.2 25.7 23.0 93 0.8 ESE 20 26 11 14 1007.1 1006.9 5.0
04/09:00pm 24.3 26.9 23.3 94 0.7 E 15 20 8 11 1007.1 1006.9 5.0
04/08:30pm 24.3 26.9 23.3 94 0.7 ESE 15 22 8 12 1007.0 1006.8 5.0
04/08:23pm 24.3 26.9 23.3 94 0.7 ESE 15 22 8 12 1007.0 1006.8 5.0
04/08:10pm 24.4 26.7 23.5 95 0.6 SE 17 20 9 11 1006.9 1006.7 4.8
04/08:00pm 24.4 26.3 23.5 95 0.6 SE 19 22 10 12 1006.8 1006.6 4.6
04/07:36pm 24.5 26.8 23.5 94 0.7 ESE 17 22 9 12 1006.5 1006.3 1.8
04/07:30pm 24.7 26.6 23.5 93 0.8 ESE 19 26 10 14 1006.3 1006.1 1.2
04/07:02pm 25.7 27.1 22.8 84 2.0 ESE 20 33 11 18 1005.6 1005.4 0.0
04/07:00pm 26.1 27.5 22.6 81 2.4 SE 19 28 10 15 1005.4 1005.2 0.0
04/06:30pm 29.1 33.1 24.4 76 3.3 WNW 11 13 6 7 1004.2 1004.0 0.0
04/06:00pm 29.6 33.4 24.7 75 3.4 WNW 13 15 7 8 1003.5 1003.3 0.0
04/05:30pm 30.3 34.3 24.4 70 4.1 WNW 11 13 6 7 1003.3 1003.1 0.0
04/05:00pm 31.1 34.3 23.7 64 5.1 WNW 13 19 7 10 1003.2 1003.0 0.0
04/04:30pm 30.7 33.8 23.6 66 4.9 WNW 13 19 7 10 1002.8 1002.6 0.0
04/04:00pm 30.2 33.2 23.4 67 4.7 NW 13 19 7 10 1002.8 1002.6 0.0
04/03:30pm 30.1 32.7 24.0 70 4.2 NW 17 22 9 12 1003.1 1002.9 0.0
04/03:00pm 30.6 33.5 23.8 67 4.7 NW 15 19 8 10 1003.6 1003.4 0.0
04/02:30pm 30.5 33.2 22.9 64 5.2 WNW 13 19 7 10 1004.1 1003.9 0.0
04/02:00pm 30.5 33.1 22.7 63 5.3 W 13 22 7 12 1004.6 1004.4 0.0
04/01:30pm 29.8 33.0 22.3 64 5.1 SW 9 13 5 7 1004.9 1004.7 0.0
04/01:00pm 29.1 33.1 23.1 70 4.1 S 7 11 4 6 1005.4 1005.2 0.0
04/12:30pm 28.8 32.8 22.8 70 4.1 S 6 11 3 6 1006.0 1005.8 0.0
04/12:00pm 28.0 32.3 22.7 73 3.6 S 4 9 2 5 1006.4 1006.2 0.0
04/11:30am 27.1 31.5 23.8 82 2.3 SSW 7 9 4 5 1006.7 1006.5 0.0
04/11:00am 27.1 30.7 23.8 82 2.3 WSW 11 15 6 8 1006.8 1006.6 0.0
04/10:30am 27.2 30.4 23.7 81 2.4 WSW 13 19 7 10 1006.7 1006.5 0.0
04/10:00am 27.4 30.9 23.6 80 2.6 W 11 20 6 11 1006.3 1006.1 0.0
04/09:30am 26.5 29.1 21.9 76 3.1 W 11 15 6 8 1006.0 1005.8 0.0
04/09:00am 26.6 28.6 22.2 77 3.0 W 15 20 8 11 1005.8 1005.6 14.4
04/08:30am 26.5 29.6 22.8 80 2.5 WNW 11 13 6 7 1005.5 1005.3 14.4
04/08:00am 25.9 29.2 22.6 82 2.2 WNW 9 11 5 6 1005.4 1005.2 14.4
04/07:30am 25.1 28.3 23.0 88 1.4 NW 11 13 6 7 1005.4 1005.2 14.4
04/07:00am 24.8 26.8 22.9 89 1.3 NW 17 22 9 12 1005.3 1005.1 14.2
04/06:30am 25.0 26.0 22.1 84 1.9 NW 20 28 11 15 1005.2 1005.0 14.2
04/06:00am 24.3 27.4 22.2 88 1.4 W 9 13 5 7 1005.3 1005.1 14.2
04/05:30am 23.8 26.7 21.7 88 1.4 W 9 13 5 7 1005.3 1005.1 14.2
04/05:00am 23.7 24.6 21.6 88 1.4 WNW 19 26 10 14 1005.1 1004.9 13.4
04/04:30am 23.9 24.1 20.6 82 2.2 WNW 20 28 11 15 1005.1 1004.9 12.6
04/04:00am 23.6 24.9 21.7 89 1.3 WNW 17 24 9 13 1004.8 1004.6 12.2
04/03:30am 23.8 26.0 22.6 93 0.8 NW 15 19 8 10 1004.6 1004.4 11.6
04/03:00am 23.5 25.1 22.1 92 0.9 NW 17 20 9 11 1004.7 1004.5 11.4
04/02:32am 22.7 23.8 21.3 92 0.9 NNW 17 26 9 14 1004.9 1004.7 10.8
04/02:30am 22.8 24.0 21.4 92 0.9 NNW 17 26 9 14 1005.0 1004.8 10.8
04/02:15am 22.8 23.6 21.4 92 0.9 NW 19 24 10 13 1005.2 1005.0 9.8
04/02:00am 23.0 23.9 22.0 94 0.7 NW 20 26 11 14 1005.6 1005.4 8.6
04/01:30am 23.2 23.1 21.5 90 1.1 NW 24 28 13 15 1005.8 1005.6 7.4
04/01:07am 23.9 24.6 22.9 94 0.7 NNW 24 30 13 16 1005.6 1005.4 5.8
04/01:00am 24.6 25.3 23.0 91 1.1 NW 24 30 13 16 1005.7 1005.5 4.8
04/12:30am 24.6 28.3 23.2 92 1.0 SW 9 13 5 7 1005.3 1005.1 4.6
04/12:20am 24.5 28.6 23.3 93 0.8 S 7 11 4 6 1005.7 1005.5 4.6
04/12:00am 24.3 27.3 23.3 94 0.7 S 13 19 7 10 1006.4 1006.2 4.2
 
Date/Time
CST
Temp
°C
App
Temp
°C
Dew
Point
°C
Rel
Hum
%
Delta-T
°C
Wind Press
QNH
hPa
Press
MSL
hPa
Rain since
9am
mm
Dir  Spd
km/h
Gust
km/h
Spd
kts
Gust
kts
03/11:53pm 24.5 27.0 23.1 92 0.9 S 15 20 8 11 1006.8 1006.6 2.4
03/11:30pm 27.4 31.8 23.8 81 2.5 W 7 13 4 7 1006.7 1006.5 0.2
03/11:00pm 27.9 31.3 24.1 80 2.6 WNW 13 17 7 9 1006.4 1006.2 0.2
03/10:30pm 28.3 32.0 24.5 80 2.7 WNW 13 19 7 10 1006.1 1005.9 0.2
03/10:00pm 28.2 32.1 24.2 79 2.8 WNW 11 15 6 8 1005.7 1005.5 0.2
03/09:30pm 28.3 31.9 24.3 79 2.8 W 13 19 7 10 1005.7 1005.5 0.2

Other formats

Comma delimited format used in spreadsheet applications
http://www.bom.gov.au/fwo/IDD60801/IDD60801.94120.axf

JavaScript Object Notation format (JSON) in row-major order
http://www.bom.gov.au/fwo/IDD60801/IDD60801.94120.json

Data quality

Most of these data are generated automatically and are frequently updated. Quality checks on data are not normally performed. It is possible for incorrect values to appear. Refer to information at About Latest Weather Observations and please check the disclaimer before using these data.